CheckWX is a tool to help pilots better visualize weather data.  It is not intended as a substitute for an official pre-flight weather briefing.

21:56:23 UTC

SCEL METAR
Comodoro Arturo Merino Benítez International Airport
Santiago, Chile
Current

56 mins ago

SCEL 252100Z 15007KT 7000 NSC 19/10 Q1018 NOSIG
Observed
Apr-25 @ 21:00 UTC
Wind
  • 150° at 7 KTS
Visibility
7,001 meters
Flight Rules
MVFR
Cloud Levels
  • Clear skies
Temperature
19°C / 66°F
Dewpoint
10°C / 50°F
Humidity
56%
Altimeter
30.06" Hg
Pressure
1017.92 hPa
Previous

2 hours ago

SCEL 252000Z 19006KT 140V290 7000 NSC 20/10 Q1018 NOSIG
Observed
Apr-25 @ 20:00 UTC
Wind
  • 190° at 6 KTS
Visibility
7,001 meters
Flight Rules
MVFR
Cloud Levels
  • Clear skies
Temperature
20°C / 68°F
Dewpoint
10°C / 50°F
Humidity
53%
Altimeter
30.06" Hg
Pressure
1017.92 hPa
Previous

3 hours ago

SCEL 251900Z VRB04KT 6000 NSC 20/10 Q1018 NOSIG
Observed
Apr-25 @ 19:00 UTC
Wind
  • Variable at 4 KTS
Visibility
6,003 meters
Flight Rules
MVFR
Cloud Levels
  • Clear skies
Temperature
20°C / 68°F
Dewpoint
10°C / 50°F
Humidity
53%
Altimeter
30.06" Hg
Pressure
1017.92 hPa